sensor_id;sensor_type;location;lat;lon;timestamp;temperature;humidity
43894;DHT22;29556;50.846;4.442;2022-09-24T00:01:38;16.40;92.50
43894;DHT22;29556;50.846;4.442;2022-09-24T00:04:09;16.30;92.50
43894;DHT22;29556;50.846;4.442;2022-09-24T00:06:42;16.30;92.40
43894;DHT22;29556;50.846;4.442;2022-09-24T00:09:12;16.30;92.20
43894;DHT22;29556;50.846;4.442;2022-09-24T00:11:39;16.20;92.30
43894;DHT22;29556;50.846;4.442;2022-09-24T00:14:10;16.20;92.10
43894;DHT22;29556;50.846;4.442;2022-09-24T00:16:38;16.20;92.20
43894;DHT22;29556;50.846;4.442;2022-09-24T00:19:05;16.20;92.40
43894;DHT22;29556;50.846;4.442;2022-09-24T00:21:36;16.20;91.90
43894;DHT22;29556;50.846;4.442;2022-09-24T00:24:08;16.10;92.20
43894;DHT22;29556;50.846;4.442;2022-09-24T00:26:34;16.10;92.30
43894;DHT22;29556;50.846;4.442;2022-09-24T00:29:21;16.20;92.50
43894;DHT22;29556;50.846;4.442;2022-09-24T00:31:49;16.20;92.50
43894;DHT22;29556;50.846;4.442;2022-09-24T00:34:16;16.20;92.40
43894;DHT22;29556;50.846;4.442;2022-09-24T00:36:42;16.20;92.50
43894;DHT22;29556;50.846;4.442;2022-09-24T00:39:11;16.20;92.50
43894;DHT22;29556;50.846;4.442;2022-09-24T00:41:38;16.20;92.50
43894;DHT22;29556;50.846;4.442;2022-09-24T00:47:31;16.20;92.50
43894;DHT22;29556;50.846;4.442;2022-09-24T00:50:06;16.20;92.50
43894;DHT22;29556;50.846;4.442;2022-09-24T00:52:36;16.10;92.50
43894;DHT22;29556;50.846;4.442;2022-09-24T00:55:03;16.10;92.60
43894;DHT22;29556;50.846;4.442;2022-09-24T00:57:29;16.10;92.50
43894;DHT22;29556;50.846;4.442;2022-09-24T00:59:55;16.00;92.20
43894;DHT22;29556;50.846;4.442;2022-09-24T01:02:21;16.00;92.50
43894;DHT22;29556;50.846;4.442;2022-09-24T01:04:48;16.10;92.60
43894;DHT22;29556;50.846;4.442;2022-09-24T01:07:14;15.90;92.10
43894;DHT22;29556;50.846;4.442;2022-09-24T01:09:40;16.00;92.20
43894;DHT22;29556;50.846;4.442;2022-09-24T01:12:31;15.80;92.30
43894;DHT22;29556;50.846;4.442;2022-09-24T01:15:08;15.90;92.60
43894;DHT22;29556;50.846;4.442;2022-09-24T01:18:15;16.00;92.90
43894;DHT22;29556;50.846;4.442;2022-09-24T01:21:08;16.10;92.70
43894;DHT22;29556;50.846;4.442;2022-09-24T01:26:53;16.00;92.60
43894;DHT22;29556;50.846;4.442;2022-09-24T01:32:54;15.90;92.60
43894;DHT22;29556;50.846;4.442;2022-09-24T01:35:36;15.90;92.70
43894;DHT22;29556;50.846;4.442;2022-09-24T01:40:49;16.00;92.90
43894;DHT22;29556;50.846;4.442;2022-09-24T01:43:21;16.00;92.90
43894;DHT22;29556;50.846;4.442;2022-09-24T01:45:48;15.90;92.80
43894;DHT22;29556;50.846;4.442;2022-09-24T01:48:14;15.90;93.10
43894;DHT22;29556;50.846;4.442;2022-09-24T01:51:01;15.90;92.90
43894;DHT22;29556;50.846;4.442;2022-09-24T01:53:32;15.90;92.90
43894;DHT22;29556;50.846;4.442;2022-09-24T01:56:49;15.90;92.90
43894;DHT22;29556;50.846;4.442;2022-09-24T01:59:09;15.90;93.00
43894;DHT22;29556;50.846;4.442;2022-09-24T02:04:41;15.90;93.00
43894;DHT22;29556;50.846;4.442;2022-09-24T02:07:17;15.90;93.30
43894;DHT22;29556;50.846;4.442;2022-09-24T02:09:48;15.90;93.20
43894;DHT22;29556;50.846;4.442;2022-09-24T02:12:31;15.90;92.90
43894;DHT22;29556;50.846;4.442;2022-09-24T02:15:06;15.90;93.00
43894;DHT22;29556;50.846;4.442;2022-09-24T02:17:37;15.90;92.90
43894;DHT22;29556;50.846;4.442;2022-09-24T02:20:08;15.90;93.10
43894;DHT22;29556;50.846;4.442;2022-09-24T02:22:35;15.90;93.20
43894;DHT22;29556;50.846;4.442;2022-09-24T02:25:05;16.00;93.10
43894;DHT22;29556;50.846;4.442;2022-09-24T02:27:33;15.90;93.00
43894;DHT22;29556;50.846;4.442;2022-09-24T02:30:01;15.90;93.30
43894;DHT22;29556;50.846;4.442;2022-09-24T02:32:30;15.90;93.20
43894;DHT22;29556;50.846;4.442;2022-09-24T02:34:59;15.90;93.20
43894;DHT22;29556;50.846;4.442;2022-09-24T02:37:27;15.90;93.20
43894;DHT22;29556;50.846;4.442;2022-09-24T02:39:55;15.90;93.20
43894;DHT22;29556;50.846;4.442;2022-09-24T02:42:21;15.90;93.30
43894;DHT22;29556;50.846;4.442;2022-09-24T02:44:47;15.90;93.20
43894;DHT22;29556;50.846;4.442;2022-09-24T02:47:13;16.00;93.30
43894;DHT22;29556;50.846;4.442;2022-09-24T02:49:39;16.00;93.40
43894;DHT22;29556;50.846;4.442;2022-09-24T02:52:04;15.90;93.30
43894;DHT22;29556;50.846;4.442;2022-09-24T02:54:30;16.00;93.70
43894;DHT22;29556;50.846;4.442;2022-09-24T02:56:56;16.00;93.30
43894;DHT22;29556;50.846;4.442;2022-09-24T02:59:22;15.90;93.20
43894;DHT22;29556;50.846;4.442;2022-09-24T03:01:48;15.80;93.10
43894;DHT22;29556;50.846;4.442;2022-09-24T03:04:15;15.90;93.30
43894;DHT22;29556;50.846;4.442;2022-09-24T03:06:41;15.90;93.40
43894;DHT22;29556;50.846;4.442;2022-09-24T03:09:06;15.90;93.40
43894;DHT22;29556;50.846;4.442;2022-09-24T03:11:32;15.90;93.50
43894;DHT22;29556;50.846;4.442;2022-09-24T03:13:58;15.90;93.40
43894;DHT22;29556;50.846;4.442;2022-09-24T03:16:24;15.90;93.40
43894;DHT22;29556;50.846;4.442;2022-09-24T03:18:50;15.90;93.50
43894;DHT22;29556;50.846;4.442;2022-09-24T03:21:18;15.90;93.50
43894;DHT22;29556;50.846;4.442;2022-09-24T03:23:44;15.90;93.50
43894;DHT22;29556;50.846;4.442;2022-09-24T03:26:10;15.90;93.50
43894;DHT22;29556;50.846;4.442;2022-09-24T03:28:37;15.80;93.30
43894;DHT22;29556;50.846;4.442;2022-09-24T03:31:03;15.90;93.60
43894;DHT22;29556;50.846;4.442;2022-09-24T03:36:02;15.80;93.40
43894;DHT22;29556;50.846;4.442;2022-09-24T03:38:28;15.70;93.20
43894;DHT22;29556;50.846;4.442;2022-09-24T03:40:55;15.80;93.50
43894;DHT22;29556;50.846;4.442;2022-09-24T03:43:22;15.70;93.70
43894;DHT22;29556;50.846;4.442;2022-09-24T03:45:48;15.70;93.30
43894;DHT22;29556;50.846;4.442;2022-09-24T03:48:15;15.80;93.50
43894;DHT22;29556;50.846;4.442;2022-09-24T03:50:41;15.80;93.50
43894;DHT22;29556;50.846;4.442;2022-09-24T03:53:07;15.70;93.50
43894;DHT22;29556;50.846;4.442;2022-09-24T03:55:32;15.70;93.40
43894;DHT22;29556;50.846;4.442;2022-09-24T03:57:58;15.70;93.50
43894;DHT22;29556;50.846;4.442;2022-09-24T04:00:24;15.80;93.60
43894;DHT22;29556;50.846;4.442;2022-09-24T04:02:50;15.70;93.50
43894;DHT22;29556;50.846;4.442;2022-09-24T04:05:15;15.80;93.60
43894;DHT22;29556;50.846;4.442;2022-09-24T04:07:44;15.70;93.40
43894;DHT22;29556;50.846;4.442;2022-09-24T04:10:10;15.70;93.20
43894;DHT22;29556;50.846;4.442;2022-09-24T04:12:36;15.70;93.50
43894;DHT22;29556;50.846;4.442;2022-09-24T04:15:02;15.70;93.60
43894;DHT22;29556;50.846;4.442;2022-09-24T04:17:28;15.70;93.60
43894;DHT22;29556;50.846;4.442;2022-09-24T04:19:57;15.70;93.50
43894;DHT22;29556;50.846;4.442;2022-09-24T04:22:26;15.70;93.60
43894;DHT22;29556;50.846;4.442;2022-09-24T04:24:54;15.70;93.70
43894;DHT22;29556;50.846;4.442;2022-09-24T04:27:20;15.70;93.60
43894;DHT22;29556;50.846;4.442;2022-09-24T04:29:46;15.70;93.50
43894;DHT22;29556;50.846;4.442;2022-09-24T04:32:11;15.70;93.50
43894;DHT22;29556;50.846;4.442;2022-09-24T04:34:37;15.70;93.80
43894;DHT22;29556;50.846;4.442;2022-09-24T04:37:03;15.70;93.70
43894;DHT22;29556;50.846;4.442;2022-09-24T04:39:30;15.70;93.60
43894;DHT22;29556;50.846;4.442;2022-09-24T04:41:56;15.80;93.80
43894;DHT22;29556;50.846;4.442;2022-09-24T04:44:22;15.70;93.80
43894;DHT22;29556;50.846;4.442;2022-09-24T04:46:48;15.80;93.70
43894;DHT22;29556;50.846;4.442;2022-09-24T04:49:14;15.70;93.70
43894;DHT22;29556;50.846;4.442;2022-09-24T04:51:40;15.70;93.80
43894;DHT22;29556;50.846;4.442;2022-09-24T04:54:05;15.70;93.60
43894;DHT22;29556;50.846;4.442;2022-09-24T04:56:31;15.60;93.60
43894;DHT22;29556;50.846;4.442;2022-09-24T04:58:57;15.70;93.70
43894;DHT22;29556;50.846;4.442;2022-09-24T05:01:23;15.70;93.70
43894;DHT22;29556;50.846;4.442;2022-09-24T05:03:49;15.60;93.50
43894;DHT22;29556;50.846;4.442;2022-09-24T05:06:17;15.70;93.80
43894;DHT22;29556;50.846;4.442;2022-09-24T05:08:43;15.70;93.70
43894;DHT22;29556;50.846;4.442;2022-09-24T05:11:09;15.70;93.80
43894;DHT22;29556;50.846;4.442;2022-09-24T05:13:34;15.70;93.90
43894;DHT22;29556;50.846;4.442;2022-09-24T05:16:01;15.70;93.50
43894;DHT22;29556;50.846;4.442;2022-09-24T05:18:27;15.60;93.70
43894;DHT22;29556;50.846;4.442;2022-09-24T05:20:53;15.70;93.90
43894;DHT22;29556;50.846;4.442;2022-09-24T05:23:19;15.70;93.80
43894;DHT22;29556;50.846;4.442;2022-09-24T05:25:45;15.70;93.80
43894;DHT22;29556;50.846;4.442;2022-09-24T05:28:29;15.70;93.90
43894;DHT22;29556;50.846;4.442;2022-09-24T05:30:58;15.70;93.90
43894;DHT22;29556;50.846;4.442;2022-09-24T05:33:24;15.70;93.90
43894;DHT22;29556;50.846;4.442;2022-09-24T05:35:54;15.70;94.20
43894;DHT22;29556;50.846;4.442;2022-09-24T05:38:20;15.70;93.90
43894;DHT22;29556;50.846;4.442;2022-09-24T05:40:46;15.70;93.80
43894;DHT22;29556;50.846;4.442;2022-09-24T05:43:12;15.70;94.00
43894;DHT22;29556;50.846;4.442;2022-09-24T05:45:39;15.70;93.90
43894;DHT22;29556;50.846;4.442;2022-09-24T05:48:06;15.70;94.10
43894;DHT22;29556;50.846;4.442;2022-09-24T05:50:32;15.70;93.90
43894;DHT22;29556;50.846;4.442;2022-09-24T05:53:08;15.70;93.90
43894;DHT22;29556;50.846;4.442;2022-09-24T05:55:34;15.70;94.00
43894;DHT22;29556;50.846;4.442;2022-09-24T05:58:08;15.70;94.10
43894;DHT22;29556;50.846;4.442;2022-09-24T06:00:37;15.70;93.70
43894;DHT22;29556;50.846;4.442;2022-09-24T06:03:10;15.60;93.60
43894;DHT22;29556;50.846;4.442;2022-09-24T06:05:36;15.60;93.80
43894;DHT22;29556;50.846;4.442;2022-09-24T06:08:03;15.60;93.70
43894;DHT22;29556;50.846;4.442;2022-09-24T06:10:29;15.60;93.80
43894;DHT22;29556;50.846;4.442;2022-09-24T06:12:55;15.70;94.00
43894;DHT22;29556;50.846;4.442;2022-09-24T06:15:21;15.70;93.90
43894;DHT22;29556;50.846;4.442;2022-09-24T06:17:47;15.80;94.20
43894;DHT22;29556;50.846;4.442;2022-09-24T06:20:13;15.80;94.00
43894;DHT22;29556;50.846;4.442;2022-09-24T06:22:39;15.70;93.80
43894;DHT22;29556;50.846;4.442;2022-09-24T06:25:06;15.70;93.80
43894;DHT22;29556;50.846;4.442;2022-09-24T06:27:32;15.70;93.90
43894;DHT22;29556;50.846;4.442;2022-09-24T06:29:57;15.70;94.20
43894;DHT22;29556;50.846;4.442;2022-09-24T06:32:23;15.70;93.90
43894;DHT22;29556;50.846;4.442;2022-09-24T06:34:51;15.70;93.90
43894;DHT22;29556;50.846;4.442;2022-09-24T06:37:16;15.70;94.00
43894;DHT22;29556;50.846;4.442;2022-09-24T06:39:42;15.80;94.10
43894;DHT22;29556;50.846;4.442;2022-09-24T06:42:08;15.80;94.10
43894;DHT22;29556;50.846;4.442;2022-09-24T06:44:35;15.80;94.20
43894;DHT22;29556;50.846;4.442;2022-09-24T06:47:01;15.90;94.20
43894;DHT22;29556;50.846;4.442;2022-09-24T06:49:27;15.90;93.90
43894;DHT22;29556;50.846;4.442;2022-09-24T06:51:53;15.90;94.10
43894;DHT22;29556;50.846;4.442;2022-09-24T06:54:19;15.90;94.20
43894;DHT22;29556;50.846;4.442;2022-09-24T06:56:45;15.90;94.00
43894;DHT22;29556;50.846;4.442;2022-09-24T06:59:11;15.80;94.00
43894;DHT22;29556;50.846;4.442;2022-09-24T07:01:37;15.90;93.90
43894;DHT22;29556;50.846;4.442;2022-09-24T07:04:03;15.80;93.80
43894;DHT22;29556;50.846;4.442;2022-09-24T07:06:29;15.80;94.10
43894;DHT22;29556;50.846;4.442;2022-09-24T07:09:15;15.90;94.30
43894;DHT22;29556;50.846;4.442;2022-09-24T07:11:42;15.90;94.40
43894;DHT22;29556;50.846;4.442;2022-09-24T07:14:10;15.90;94.10
43894;DHT22;29556;50.846;4.442;2022-09-24T07:16:36;15.90;94.30
43894;DHT22;29556;50.846;4.442;2022-09-24T07:19:01;15.90;93.70
43894;DHT22;29556;50.846;4.442;2022-09-24T07:21:28;15.90;94.00
43894;DHT22;29556;50.846;4.442;2022-09-24T07:23:54;15.90;93.80
43894;DHT22;29556;50.846;4.442;2022-09-24T07:26:20;15.80;93.70
43894;DHT22;29556;50.846;4.442;2022-09-24T07:28:45;15.80;93.60
43894;DHT22;29556;50.846;4.442;2022-09-24T07:31:14;15.70;93.60
43894;DHT22;29556;50.846;4.442;2022-09-24T07:33:41;15.80;94.00
43894;DHT22;29556;50.846;4.442;2022-09-24T07:36:07;15.90;94.20
43894;DHT22;29556;50.846;4.442;2022-09-24T07:38:33;15.90;94.00
43894;DHT22;29556;50.846;4.442;2022-09-24T07:41:01;15.90;94.00
43894;DHT22;29556;50.846;4.442;2022-09-24T07:43:29;15.90;93.60
43894;DHT22;29556;50.846;4.442;2022-09-24T07:45:57;15.90;94.10
43894;DHT22;29556;50.846;4.442;2022-09-24T07:48:23;16.00;94.30
43894;DHT22;29556;50.846;4.442;2022-09-24T07:50:49;16.00;94.10
43894;DHT22;29556;50.846;4.442;2022-09-24T07:53:16;16.10;94.20
43894;DHT22;29556;50.846;4.442;2022-09-24T07:55:42;16.00;93.80
43894;DHT22;29556;50.846;4.442;2022-09-24T07:58:13;16.00;93.40
43894;DHT22;29556;50.846;4.442;2022-09-24T08:00:39;16.00;93.70
43894;DHT22;29556;50.846;4.442;2022-09-24T08:03:05;16.00;93.80
43894;DHT22;29556;50.846;4.442;2022-09-24T08:05:32;16.00;93.90
43894;DHT22;29556;50.846;4.442;2022-09-24T08:07:58;16.00;93.70
43894;DHT22;29556;50.846;4.442;2022-09-24T08:10:25;16.10;93.70
43894;DHT22;29556;50.846;4.442;2022-09-24T08:12:51;16.10;93.70
43894;DHT22;29556;50.846;4.442;2022-09-24T08:15:17;16.10;93.30
43894;DHT22;29556;50.846;4.442;2022-09-24T08:17:43;16.20;94.00
43894;DHT22;29556;50.846;4.442;2022-09-24T08:20:09;16.20;93.80
43894;DHT22;29556;50.846;4.442;2022-09-24T08:22:37;16.20;93.60
43894;DHT22;29556;50.846;4.442;2022-09-24T08:25:03;16.30;94.10
43894;DHT22;29556;50.846;4.442;2022-09-24T08:27:30;16.30;93.80
43894;DHT22;29556;50.846;4.442;2022-09-24T08:29:58;16.40;93.70
43894;DHT22;29556;50.846;4.442;2022-09-24T08:32:29;16.40;94.00
43894;DHT22;29556;50.846;4.442;2022-09-24T08:34:57;16.40;93.90
43894;DHT22;29556;50.846;4.442;2022-09-24T08:37:32;16.50;94.20
43894;DHT22;29556;50.846;4.442;2022-09-24T08:40:06;16.40;93.80
43894;DHT22;29556;50.846;4.442;2022-09-24T08:45:45;16.30;93.80
43894;DHT22;29556;50.846;4.442;2022-09-24T08:48:34;16.30;93.30
43894;DHT22;29556;50.846;4.442;2022-09-24T08:51:04;16.40;93.90
43894;DHT22;29556;50.846;4.442;2022-09-24T08:56:35;16.30;94.00
43894;DHT22;29556;50.846;4.442;2022-09-24T08:59:28;16.40;93.10
43894;DHT22;29556;50.846;4.442;2022-09-24T09:02:50;16.30;92.70
43894;DHT22;29556;50.846;4.442;2022-09-24T09:05:58;16.40;93.90
43894;DHT22;29556;50.846;4.442;2022-09-24T09:08:49;16.50;92.80
43894;DHT22;29556;50.846;4.442;2022-09-24T09:11:25;16.50;93.30
43894;DHT22;29556;50.846;4.442;2022-09-24T09:14:05;16.60;94.00
43894;DHT22;29556;50.846;4.442;2022-09-24T09:19:38;16.80;93.70
43894;DHT22;29556;50.846;4.442;2022-09-24T09:22:13;16.70;93.30
43894;DHT22;29556;50.846;4.442;2022-09-24T09:24:52;16.60;92.80
43894;DHT22;29556;50.846;4.442;2022-09-24T09:27:21;16.50;92.90
43894;DHT22;29556;50.846;4.442;2022-09-24T09:29:55;16.70;93.60
43894;DHT22;29556;50.846;4.442;2022-09-24T09:33:03;16.60;93.40
43894;DHT22;29556;50.846;4.442;2022-09-24T09:35:43;16.70;92.90
43894;DHT22;29556;50.846;4.442;2022-09-24T09:44:38;16.70;92.60
43894;DHT22;29556;50.846;4.442;2022-09-24T09:47:42;16.90;93.80
43894;DHT22;29556;50.846;4.442;2022-09-24T09:50:38;16.90;93.50
43894;DHT22;29556;50.846;4.442;2022-09-24T09:53:16;17.20;93.90
43894;DHT22;29556;50.846;4.442;2022-09-24T09:55:58;16.90;92.00
43894;DHT22;29556;50.846;4.442;2022-09-24T09:58:39;16.80;92.60
43894;DHT22;29556;50.846;4.442;2022-09-24T10:01:14;16.70;92.10
43894;DHT22;29556;50.846;4.442;2022-09-24T10:03:47;16.80;92.80
43894;DHT22;29556;50.846;4.442;2022-09-24T10:06:37;16.80;92.50
43894;DHT22;29556;50.846;4.442;2022-09-24T10:09:15;16.70;92.40
43894;DHT22;29556;50.846;4.442;2022-09-24T10:11:41;16.70;92.80
43894;DHT22;29556;50.846;4.442;2022-09-24T10:14:13;16.80;92.60
43894;DHT22;29556;50.846;4.442;2022-09-24T10:16:43;16.80;92.90
43894;DHT22;29556;50.846;4.442;2022-09-24T10:19:23;16.80;93.30
43894;DHT22;29556;50.846;4.442;2022-09-24T10:21:51;16.90;93.20
43894;DHT22;29556;50.846;4.442;2022-09-24T10:24:27;16.90;93.20
43894;DHT22;29556;50.846;4.442;2022-09-24T10:26:55;16.90;92.90
43894;DHT22;29556;50.846;4.442;2022-09-24T10:34:36;16.90;92.80
43894;DHT22;29556;50.846;4.442;2022-09-24T10:37:13;17.00;93.00
43894;DHT22;29556;50.846;4.442;2022-09-24T10:40:02;17.00;92.90
43894;DHT22;29556;50.846;4.442;2022-09-24T10:42:36;17.00;93.30
43894;DHT22;29556;50.846;4.442;2022-09-24T10:45:05;17.00;93.00
43894;DHT22;29556;50.846;4.442;2022-09-24T10:56:40;16.90;92.00
43894;DHT22;29556;50.846;4.442;2022-09-24T11:03:02;16.80;92.10
43894;DHT22;29556;50.846;4.442;2022-09-24T11:05:56;16.90;92.40
43894;DHT22;29556;50.846;4.442;2022-09-24T11:09:33;16.80;91.90
43894;DHT22;29556;50.846;4.442;2022-09-24T11:29:50;17.20;92.20
43894;DHT22;29556;50.846;4.442;2022-09-24T11:45:09;17.40;92.50
43894;DHT22;29556;50.846;4.442;2022-09-24T11:51:03;17.50;92.60
43894;DHT22;29556;50.846;4.442;2022-09-24T11:57:01;17.50;92.70
43894;DHT22;29556;50.846;4.442;2022-09-24T12:07:57;17.60;92.90
43894;DHT22;29556;50.846;4.442;2022-09-24T12:10:48;17.60;93.00
43894;DHT22;29556;50.846;4.442;2022-09-24T12:13:35;17.60;93.00
43894;DHT22;29556;50.846;4.442;2022-09-24T12:16:37;17.60;92.80
43894;DHT22;29556;50.846;4.442;2022-09-24T12:19:54;17.50;92.90
43894;DHT22;29556;50.846;4.442;2022-09-24T12:22:27;17.50;93.10
43894;DHT22;29556;50.846;4.442;2022-09-24T12:24:59;17.40;93.20
43894;DHT22;29556;50.846;4.442;2022-09-24T12:27:35;17.50;93.30
43894;DHT22;29556;50.846;4.442;2022-09-24T12:38:52;17.40;93.40
43894;DHT22;29556;50.846;4.442;2022-09-24T12:41:36;17.50;93.30
43894;DHT22;29556;50.846;4.442;2022-09-24T12:44:18;17.40;93.30
43894;DHT22;29556;50.846;4.442;2022-09-24T12:46:47;17.30;93.10
43894;DHT22;29556;50.846;4.442;2022-09-24T12:52:01;17.20;93.30
43894;DHT22;29556;50.846;4.442;2022-09-24T12:54:29;17.20;93.60
43894;DHT22;29556;50.846;4.442;2022-09-24T12:57:21;17.20;93.50
43894;DHT22;29556;50.846;4.442;2022-09-24T12:59:51;17.30;93.30
43894;DHT22;29556;50.846;4.442;2022-09-24T13:02:28;17.30;93.70
43894;DHT22;29556;50.846;4.442;2022-09-24T13:12:43;17.50;93.80
43894;DHT22;29556;50.846;4.442;2022-09-24T13:15:29;17.40;93.00
43894;DHT22;29556;50.846;4.442;2022-09-24T13:20:38;17.60;93.60
43894;DHT22;29556;50.846;4.442;2022-09-24T13:26:03;17.80;93.80
43894;DHT22;29556;50.846;4.442;2022-09-24T13:28:48;17.60;93.10
43894;DHT22;29556;50.846;4.442;2022-09-24T13:34:12;17.30;91.90
43894;DHT22;29556;50.846;4.442;2022-09-24T13:39:55;17.40;93.20
43894;DHT22;29556;50.846;4.442;2022-09-24T13:42:50;17.40;92.80
43894;DHT22;29556;50.846;4.442;2022-09-24T13:45:22;17.40;92.80
43894;DHT22;29556;50.846;4.442;2022-09-24T13:48:04;17.40;92.80
43894;DHT22;29556;50.846;4.442;2022-09-24T13:50:49;17.50;93.10
43894;DHT22;29556;50.846;4.442;2022-09-24T13:55:56;17.50;93.10
43894;DHT22;29556;50.846;4.442;2022-09-24T14:00:57;17.50;93.40
43894;DHT22;29556;50.846;4.442;2022-09-24T14:03:28;17.60;93.60
43894;DHT22;29556;50.846;4.442;2022-09-24T14:05:59;17.60;93.50
43894;DHT22;29556;50.846;4.442;2022-09-24T14:08:27;17.70;93.40
43894;DHT22;29556;50.846;4.442;2022-09-24T14:11:26;17.50;92.80
43894;DHT22;29556;50.846;4.442;2022-09-24T14:13:53;17.50;93.00
43894;DHT22;29556;50.846;4.442;2022-09-24T14:16:29;17.50;93.10
43894;DHT22;29556;50.846;4.442;2022-09-24T14:19:04;17.60;93.50
43894;DHT22;29556;50.846;4.442;2022-09-24T14:21:33;17.50;92.90
43894;DHT22;29556;50.846;4.442;2022-09-24T14:24:11;17.60;93.10
43894;DHT22;29556;50.846;4.442;2022-09-24T14:26:53;17.70;93.50
43894;DHT22;29556;50.846;4.442;2022-09-24T14:29:44;17.80;93.70
43894;DHT22;29556;50.846;4.442;2022-09-24T14:32:29;17.80;93.40
43894;DHT22;29556;50.846;4.442;2022-09-24T14:35:32;17.80;93.40
43894;DHT22;29556;50.846;4.442;2022-09-24T14:38:10;17.80;93.30
43894;DHT22;29556;50.846;4.442;2022-09-24T14:40:44;17.70;93.10
43894;DHT22;29556;50.846;4.442;2022-09-24T14:43:20;17.70;93.30
43894;DHT22;29556;50.846;4.442;2022-09-24T14:45:49;17.70;93.50
43894;DHT22;29556;50.846;4.442;2022-09-24T14:48:29;17.60;93.40
43894;DHT22;29556;50.846;4.442;2022-09-24T14:50:56;17.70;93.40
43894;DHT22;29556;50.846;4.442;2022-09-24T14:53:33;17.60;93.20
43894;DHT22;29556;50.846;4.442;2022-09-24T14:56:28;17.50;93.30
43894;DHT22;29556;50.846;4.442;2022-09-24T14:58:52;17.50;93.40
43894;DHT22;29556;50.846;4.442;2022-09-24T15:01:32;17.50;93.60
43894;DHT22;29556;50.846;4.442;2022-09-24T15:04:01;17.50;93.50
43894;DHT22;29556;50.846;4.442;2022-09-24T15:06:34;17.50;93.70
43894;DHT22;29556;50.846;4.442;2022-09-24T15:12:20;17.70;93.60
43894;DHT22;29556;50.846;4.442;2022-09-24T15:15:37;17.70;93.60
43894;DHT22;29556;50.846;4.442;2022-09-24T15:18:09;17.60;93.80
43894;DHT22;29556;50.846;4.442;2022-09-24T15:21:05;17.70;93.90
43894;DHT22;29556;50.846;4.442;2022-09-24T15:24:01;17.80;93.70
43894;DHT22;29556;50.846;4.442;2022-09-24T15:26:42;17.60;93.70
43894;DHT22;29556;50.846;4.442;2022-09-24T15:29:21;17.80;94.30
43894;DHT22;29556;50.846;4.442;2022-09-24T15:31:52;17.80;94.00
43894;DHT22;29556;50.846;4.442;2022-09-24T15:34:19;17.90;94.10
43894;DHT22;29556;50.846;4.442;2022-09-24T15:36:49;18.00;94.20
43894;DHT22;29556;50.846;4.442;2022-09-24T15:39:20;18.00;93.60
43894;DHT22;29556;50.846;4.442;2022-09-24T15:47:07;17.80;92.80
43894;DHT22;29556;50.846;4.442;2022-09-24T15:49:42;17.80;92.90
43894;DHT22;29556;50.846;4.442;2022-09-24T15:52:22;17.80;93.00
43894;DHT22;29556;50.846;4.442;2022-09-24T16:00:37;17.70;92.90
43894;DHT22;29556;50.846;4.442;2022-09-24T16:03:04;17.80;93.20
43894;DHT22;29556;50.846;4.442;2022-09-24T16:05:35;17.70;93.00
43894;DHT22;29556;50.846;4.442;2022-09-24T16:08:14;17.60;92.80
43894;DHT22;29556;50.846;4.442;2022-09-24T16:10:44;17.80;93.10
43894;DHT22;29556;50.846;4.442;2022-09-24T16:13:13;17.70;93.10
43894;DHT22;29556;50.846;4.442;2022-09-24T16:15:41;17.60;93.00
43894;DHT22;29556;50.846;4.442;2022-09-24T16:18:14;17.60;93.20
43894;DHT22;29556;50.846;4.442;2022-09-24T16:20:47;17.70;93.40
43894;DHT22;29556;50.846;4.442;2022-09-24T16:23:15;17.60;92.90
43894;DHT22;29556;50.846;4.442;2022-09-24T16:25:57;17.60;93.00
43894;DHT22;29556;50.846;4.442;2022-09-24T16:28:49;17.60;93.10
43894;DHT22;29556;50.846;4.442;2022-09-24T16:31:22;17.60;92.70
43894;DHT22;29556;50.846;4.442;2022-09-24T16:34:10;17.60;93.30
43894;DHT22;29556;50.846;4.442;2022-09-24T16:36:58;17.60;93.00
43894;DHT22;29556;50.846;4.442;2022-09-24T16:39:56;17.40;92.70
43894;DHT22;29556;50.846;4.442;2022-09-24T16:42:47;17.50;93.20
43894;DHT22;29556;50.846;4.442;2022-09-24T16:45:14;17.50;93.30
43894;DHT22;29556;50.846;4.442;2022-09-24T16:47:44;17.50;93.30
43894;DHT22;29556;50.846;4.442;2022-09-24T16:50:20;17.50;92.90
43894;DHT22;29556;50.846;4.442;2022-09-24T16:52:50;17.50;93.00
43894;DHT22;29556;50.846;4.442;2022-09-24T16:55:22;17.40;93.00
43894;DHT22;29556;50.846;4.442;2022-09-24T16:57:56;17.40;93.20
43894;DHT22;29556;50.846;4.442;2022-09-24T17:00:22;17.40;93.40
43894;DHT22;29556;50.846;4.442;2022-09-24T17:02:49;17.30;93.00
43894;DHT22;29556;50.846;4.442;2022-09-24T17:05:19;17.40;93.40
43894;DHT22;29556;50.846;4.442;2022-09-24T17:08:01;17.30;93.30
43894;DHT22;29556;50.846;4.442;2022-09-24T17:10:30;17.30;93.40
43894;DHT22;29556;50.846;4.442;2022-09-24T17:12:57;17.20;93.20
43894;DHT22;29556;50.846;4.442;2022-09-24T17:15:59;17.20;93.40
43894;DHT22;29556;50.846;4.442;2022-09-24T17:18:28;17.10;93.00
43894;DHT22;29556;50.846;4.442;2022-09-24T17:23:53;17.00;93.30
43894;DHT22;29556;50.846;4.442;2022-09-24T17:26:24;17.00;93.10
43894;DHT22;29556;50.846;4.442;2022-09-24T17:29:12;17.00;93.00
43894;DHT22;29556;50.846;4.442;2022-09-24T17:31:38;16.80;93.20
43894;DHT22;29556;50.846;4.442;2022-09-24T17:34:07;16.80;93.30
43894;DHT22;29556;50.846;4.442;2022-09-24T17:36:36;16.80;93.40
43894;DHT22;29556;50.846;4.442;2022-09-24T17:39:03;16.80;93.60
43894;DHT22;29556;50.846;4.442;2022-09-24T17:41:32;16.80;93.50
43894;DHT22;29556;50.846;4.442;2022-09-24T17:43:58;16.80;93.90
43894;DHT22;29556;50.846;4.442;2022-09-24T17:46:40;16.80;93.50
43894;DHT22;29556;50.846;4.442;2022-09-24T17:49:06;16.70;93.60
43894;DHT22;29556;50.846;4.442;2022-09-24T17:51:56;16.80;93.80
43894;DHT22;29556;50.846;4.442;2022-09-24T17:54:28;16.70;93.80
43894;DHT22;29556;50.846;4.442;2022-09-24T17:56:53;16.70;93.60
43894;DHT22;29556;50.846;4.442;2022-09-24T17:59:19;16.70;93.70
43894;DHT22;29556;50.846;4.442;2022-09-24T18:01:45;16.70;93.90
43894;DHT22;29556;50.846;4.442;2022-09-24T18:04:15;16.70;94.00
43894;DHT22;29556;50.846;4.442;2022-09-24T18:06:42;16.60;93.80
43894;DHT22;29556;50.846;4.442;2022-09-24T18:09:10;16.60;93.50
43894;DHT22;29556;50.846;4.442;2022-09-24T18:11:44;16.60;93.90
43894;DHT22;29556;50.846;4.442;2022-09-24T18:14:18;16.60;93.80
43894;DHT22;29556;50.846;4.442;2022-09-24T18:16:55;16.60;93.90
43894;DHT22;29556;50.846;4.442;2022-09-24T18:19:23;16.60;93.90
43894;DHT22;29556;50.846;4.442;2022-09-24T18:21:48;16.50;93.70
43894;DHT22;29556;50.846;4.442;2022-09-24T18:24:25;16.50;93.80
43894;DHT22;29556;50.846;4.442;2022-09-24T18:26:53;16.50;94.10
43894;DHT22;29556;50.846;4.442;2022-09-24T18:29:19;16.50;93.90
43894;DHT22;29556;50.846;4.442;2022-09-24T18:31:45;16.50;94.00
43894;DHT22;29556;50.846;4.442;2022-09-24T18:34:14;16.50;94.10